createdAt,value
2018-12-08T00:01:45.527Z,3.80
2018-12-08T00:04:13.847Z,3.90
2018-12-08T00:06:42.199Z,3.90
2018-12-08T00:09:10.516Z,3.90
2018-12-08T00:11:38.824Z,3.90
2018-12-08T00:14:07.170Z,4.00
2018-12-08T00:16:35.521Z,4.00
2018-12-08T00:19:03.959Z,4.00
2018-12-08T00:21:32.259Z,4.00
2018-12-08T00:24:00.558Z,4.00
2018-12-08T00:26:29.241Z,4.00
2018-12-08T00:28:57.648Z,4.10
2018-12-08T00:31:37.211Z,4.10
2018-12-08T00:34:05.872Z,4.10
2018-12-08T00:36:34.192Z,4.10
2018-12-08T00:39:02.797Z,4.20
2018-12-08T00:41:31.310Z,4.20
2018-12-08T00:43:59.645Z,4.20
2018-12-08T00:46:28.106Z,4.20
2018-12-08T00:48:56.480Z,4.30
2018-12-08T00:51:24.965Z,4.30
2018-12-08T00:53:53.521Z,4.30
2018-12-08T00:56:21.880Z,4.30
2018-12-08T00:58:50.266Z,4.30
2018-12-08T01:01:18.638Z,4.40
2018-12-08T01:03:46.981Z,4.40
2018-12-08T01:06:15.314Z,4.40
2018-12-08T01:08:43.774Z,4.40
2018-12-08T01:11:12.067Z,4.50
2018-12-08T01:13:40.370Z,4.50
2018-12-08T01:16:08.716Z,4.50
2018-12-08T01:18:37.282Z,4.50
2018-12-08T01:21:05.619Z,4.60
2018-12-08T01:23:33.990Z,4.60
2018-12-08T01:26:02.322Z,4.60
2018-12-08T01:28:30.644Z,4.60
2018-12-08T01:30:59.346Z,4.70
2018-12-08T01:33:27.733Z,4.70
2018-12-08T01:35:56.557Z,4.70
2018-12-08T01:38:24.854Z,4.70
2018-12-08T01:40:53.239Z,4.80
2018-12-08T01:43:21.683Z,4.80
2018-12-08T01:45:50.066Z,4.80
2018-12-08T01:48:18.434Z,4.80
2018-12-08T01:50:47.066Z,4.90
2018-12-08T01:53:15.372Z,4.90
2018-12-08T01:55:43.809Z,4.90
2018-12-08T01:58:12.200Z,4.90
2018-12-08T02:00:40.577Z,4.90
2018-12-08T02:03:08.869Z,5.00
2018-12-08T02:05:37.238Z,5.00
2018-12-08T02:08:05.559Z,5.00
2018-12-08T02:10:33.861Z,5.00
2018-12-08T02:13:02.217Z,5.00
2018-12-08T02:15:30.520Z,5.10
2018-12-08T02:17:58.854Z,5.10
2018-12-08T02:20:27.202Z,5.10
2018-12-08T02:22:55.679Z,5.20
2018-12-08T02:25:24.031Z,5.20
2018-12-08T02:27:52.316Z,5.30
2018-12-08T02:30:20.665Z,5.40
2018-12-08T02:32:49.386Z,5.40
2018-12-08T02:35:17.691Z,5.40
2018-12-08T02:37:46.038Z,5.50
2018-12-08T02:40:14.416Z,5.50
2018-12-08T02:42:42.850Z,5.50
2018-12-08T02:45:11.211Z,5.50
2018-12-08T02:47:39.768Z,5.60
2018-12-08T02:50:08.162Z,5.60
2018-12-08T02:52:36.559Z,5.70
2018-12-08T02:55:04.930Z,5.70
2018-12-08T02:57:33.329Z,5.70
2018-12-08T03:00:01.684Z,5.70
2018-12-08T03:02:29.989Z,5.70
2018-12-08T03:04:58.437Z,5.80
2018-12-08T03:07:26.751Z,5.90
2018-12-08T03:09:55.086Z,5.90
2018-12-08T03:12:23.388Z,5.90
2018-12-08T03:14:51.765Z,5.80
2018-12-08T03:17:20.089Z,5.80
2018-12-08T03:19:48.549Z,5.80
2018-12-08T03:22:16.859Z,5.80
2018-12-08T03:24:45.443Z,5.80
2018-12-08T03:27:13.834Z,5.90
2018-12-08T03:29:42.215Z,5.90
2018-12-08T03:32:10.540Z,5.90
2018-12-08T03:34:39.277Z,5.90
2018-12-08T03:37:07.637Z,5.90
2018-12-08T03:39:35.991Z,5.90
2018-12-08T03:42:04.330Z,5.90
2018-12-08T03:44:32.654Z,6.00
2018-12-08T03:47:00.962Z,6.00
2018-12-08T03:49:29.349Z,6.00
2018-12-08T03:51:57.719Z,6.00
2018-12-08T03:54:26.298Z,6.00
2018-12-08T03:56:54.703Z,6.00
2018-12-08T03:59:24.072Z,6.10
2018-12-08T04:01:52.394Z,6.10
2018-12-08T04:04:20.760Z,6.10
2018-12-08T04:06:49.440Z,6.10
2018-12-08T04:09:17.761Z,6.20
2018-12-08T04:11:46.029Z,6.20
2018-12-08T04:14:14.548Z,6.20
2018-12-08T04:16:42.923Z,6.20
2018-12-08T04:19:11.295Z,6.20
2018-12-08T04:21:39.689Z,6.20
2018-12-08T04:24:08.011Z,6.30
2018-12-08T04:26:36.395Z,6.30
2018-12-08T04:29:04.750Z,6.30
2018-12-08T04:31:33.071Z,6.30
2018-12-08T04:34:01.404Z,6.20
2018-12-08T04:36:30.055Z,6.20
2018-12-08T04:38:58.346Z,6.20
2018-12-08T04:41:26.698Z,6.30
2018-12-08T04:43:55.548Z,6.30
2018-12-08T04:46:23.880Z,6.30
2018-12-08T04:48:52.278Z,6.30
2018-12-08T04:51:20.661Z,6.30
2018-12-08T04:53:49.209Z,6.30
2018-12-08T04:56:17.524Z,6.30
2018-12-08T04:58:45.810Z,6.30
2018-12-08T05:01:14.093Z,6.30
2018-12-08T05:03:42.712Z,6.30
2018-12-08T05:06:11.029Z,6.40
2018-12-08T05:08:39.466Z,6.40
2018-12-08T05:11:07.860Z,6.40
2018-12-08T05:13:36.256Z,6.40
2018-12-08T05:16:04.599Z,6.40
2018-12-08T05:18:33.282Z,6.40
2018-12-08T05:21:01.582Z,6.50
2018-12-08T05:23:29.878Z,6.50
2018-12-08T05:25:58.232Z,6.50
2018-12-08T05:28:26.537Z,6.60
2018-12-08T05:30:54.869Z,6.70
2018-12-08T05:33:23.243Z,6.70
2018-12-08T05:35:51.565Z,6.70
2018-12-08T05:38:20.308Z,6.70
2018-12-08T05:40:48.652Z,6.70
2018-12-08T05:43:17.061Z,6.70
2018-12-08T05:45:45.406Z,6.80
2018-12-08T05:48:13.770Z,6.80
2018-12-08T05:50:42.206Z,6.70
2018-12-08T05:53:10.522Z,6.80
2018-12-08T05:55:39.498Z,6.70
2018-12-08T05:58:07.881Z,6.70
2018-12-08T06:00:36.340Z,6.70
2018-12-08T06:03:04.662Z,6.80
2018-12-08T06:05:32.956Z,6.80
2018-12-08T06:08:01.277Z,6.80
2018-12-08T06:10:29.574Z,6.80
2018-12-08T06:12:57.870Z,6.80
2018-12-08T06:15:26.275Z,6.80
2018-12-08T06:17:54.590Z,6.80
2018-12-08T06:20:22.912Z,6.90
2018-12-08T06:22:51.274Z,6.90
2018-12-08T06:25:27.640Z,6.90
2018-12-08T06:28:16.061Z,6.90
2018-12-08T06:30:44.400Z,6.90
2018-12-08T06:33:12.871Z,7.00
2018-12-08T06:35:41.206Z,6.90
2018-12-08T06:38:09.519Z,6.90
2018-12-08T06:40:38.163Z,7.00
2018-12-08T06:43:06.524Z,7.00
2018-12-08T06:45:34.831Z,7.00
2018-12-08T06:48:03.170Z,7.00
2018-12-08T06:50:31.845Z,7.00
2018-12-08T06:53:00.976Z,7.00
2018-12-08T06:55:28.510Z,7.00
2018-12-08T06:57:56.889Z,7.00
2018-12-08T07:00:25.235Z,7.00
2018-12-08T07:02:53.582Z,7.10
2018-12-08T07:05:21.902Z,7.00
2018-12-08T07:07:50.235Z,7.10
2018-12-08T07:10:19.206Z,7.00
2018-12-08T07:12:47.666Z,6.90
2018-12-08T07:15:16.032Z,6.90
2018-12-08T07:17:44.408Z,6.90
2018-12-08T07:20:12.744Z,7.00
2018-12-08T07:22:41.353Z,7.00
2018-12-08T07:25:09.729Z,7.00
2018-12-08T07:27:38.145Z,7.10
2018-12-08T07:30:08.910Z,7.10
2018-12-08T07:32:38.893Z,7.00
2018-12-08T07:35:06.558Z,7.10
2018-12-08T07:37:34.929Z,7.10
2018-12-08T07:40:03.722Z,7.10
2018-12-08T07:42:32.669Z,7.10
2018-12-08T07:45:01.050Z,7.10
2018-12-08T07:47:29.417Z,7.10
2018-12-08T07:49:57.759Z,7.10
2018-12-08T07:52:26.075Z,7.10
2018-12-08T07:54:54.401Z,7.10
2018-12-08T07:57:22.700Z,7.00
2018-12-08T07:59:51.296Z,7.00
2018-12-08T08:02:19.641Z,7.10
2018-12-08T08:04:48.045Z,7.10
2018-12-08T08:07:16.415Z,7.10
2018-12-08T08:09:44.749Z,7.20
2018-12-08T08:12:13.208Z,7.20
2018-12-08T08:14:41.603Z,7.20
2018-12-08T08:17:09.916Z,7.30
2018-12-08T08:19:38.309Z,7.30
2018-12-08T08:22:06.638Z,7.40
2018-12-08T08:24:35.088Z,7.40
2018-12-08T08:27:03.472Z,7.40
2018-12-08T08:29:31.830Z,7.40
2018-12-08T08:32:00.217Z,7.40
2018-12-08T08:34:28.557Z,7.50
2018-12-08T08:36:56.928Z,7.40
2018-12-08T08:39:25.465Z,7.40
2018-12-08T08:41:53.865Z,7.40
2018-12-08T08:44:22.579Z,7.40
2018-12-08T08:46:51.014Z,7.40
2018-12-08T08:49:19.325Z,7.50
2018-12-08T08:51:47.851Z,7.50
2018-12-08T08:54:16.571Z,7.40
2018-12-08T08:56:44.888Z,7.50
2018-12-08T08:59:13.212Z,7.50
2018-12-08T09:01:41.566Z,7.50
2018-12-08T09:04:10.054Z,7.50
2018-12-08T09:06:38.353Z,7.50
2018-12-08T09:09:06.985Z,7.40
2018-12-08T09:11:35.404Z,7.40
2018-12-08T09:14:03.750Z,7.40
2018-12-08T09:16:32.029Z,7.50
2018-12-08T09:19:00.356Z,7.40
2018-12-08T09:21:28.674Z,7.40
2018-12-08T09:23:57.067Z,7.40
2018-12-08T09:26:25.328Z,7.40
2018-12-08T09:28:53.637Z,7.40
2018-12-08T09:31:22.041Z,7.30
2018-12-08T09:33:50.347Z,7.30
2018-12-08T09:36:18.663Z,7.30
2018-12-08T09:38:47.027Z,7.30
2018-12-08T09:41:15.362Z,7.30
2018-12-08T09:43:44.090Z,7.20
2018-12-08T09:46:12.775Z,7.20
2018-12-08T09:48:41.099Z,7.20
2018-12-08T09:51:09.414Z,7.20
2018-12-08T09:53:37.755Z,7.20
2018-12-08T09:56:06.119Z,7.10
2018-12-08T09:58:34.457Z,7.10
2018-12-08T10:01:02.845Z,7.00
2018-12-08T10:03:31.234Z,7.00
2018-12-08T10:05:59.554Z,6.90
2018-12-08T10:08:27.868Z,6.90
2018-12-08T10:10:56.163Z,6.90
2018-12-08T10:13:24.716Z,6.90
2018-12-08T10:15:53.306Z,6.90
2018-12-08T10:18:21.643Z,6.80
2018-12-08T10:20:49.985Z,6.80
2018-12-08T10:23:18.276Z,6.80
2018-12-08T10:25:46.563Z,6.70
2018-12-08T10:28:15.212Z,6.70
2018-12-08T10:30:43.557Z,6.70
2018-12-08T10:33:11.866Z,6.60
2018-12-08T10:35:40.331Z,6.60
2018-12-08T10:38:08.694Z,6.50
2018-12-08T10:40:37.017Z,6.50
2018-12-08T10:43:05.373Z,6.50
2018-12-08T10:45:33.709Z,6.50
2018-12-08T10:48:02.519Z,6.40
2018-12-08T10:50:30.887Z,6.40
2018-12-08T10:52:59.190Z,6.40
2018-12-08T10:55:27.495Z,6.30
2018-12-08T10:57:55.836Z,6.30
2018-12-08T11:00:29.410Z,6.30
2018-12-08T11:03:01.983Z,6.20
2018-12-08T11:05:30.293Z,6.20
2018-12-08T11:07:58.619Z,6.10
2018-12-08T11:10:26.958Z,6.10
2018-12-08T11:12:55.280Z,6.10
2018-12-08T11:15:23.609Z,6.10
2018-12-08T11:17:51.975Z,6.10
2018-12-08T11:20:20.288Z,6.10
2018-12-08T11:22:48.586Z,6.10
2018-12-08T11:25:16.937Z,6.10
2018-12-08T11:27:45.241Z,6.10
2018-12-08T11:30:13.591Z,6.10
2018-12-08T11:32:41.906Z,6.10
2018-12-08T11:35:10.247Z,6.10
2018-12-08T11:37:38.558Z,6.10
2018-12-08T11:40:07.049Z,6.10
2018-12-08T11:42:35.382Z,6.10
2018-12-08T11:45:03.787Z,6.10
2018-12-08T11:47:32.184Z,6.10
2018-12-08T11:50:00.713Z,6.10
2018-12-08T11:52:29.043Z,6.10
2018-12-08T11:54:57.401Z,6.10
2018-12-08T11:57:25.711Z,6.00
2018-12-08T11:59:54.047Z,6.00
2018-12-08T12:02:22.360Z,6.00
2018-12-08T12:04:50.682Z,6.00
2018-12-08T12:07:19.056Z,5.90
2018-12-08T12:09:47.549Z,6.00
2018-12-08T12:12:15.889Z,6.00
2018-12-08T12:14:47.220Z,6.00
2018-12-08T12:17:15.545Z,6.00
2018-12-08T12:19:43.876Z,6.00
2018-12-08T12:22:12.219Z,6.00
2018-12-08T12:24:40.523Z,6.10
2018-12-08T12:27:08.850Z,6.00
2018-12-08T12:29:37.367Z,6.00
2018-12-08T12:32:05.661Z,6.00
2018-12-08T12:34:34.007Z,5.90
2018-12-08T12:37:02.805Z,6.00
2018-12-08T12:39:31.184Z,6.00
2018-12-08T12:41:59.573Z,6.00
2018-12-08T12:44:27.884Z,5.90
2018-12-08T12:46:56.195Z,6.00
2018-12-08T12:49:24.695Z,5.90
2018-12-08T12:51:53.379Z,5.90
2018-12-08T12:54:21.712Z,5.90
2018-12-08T12:56:50.131Z,5.90
2018-12-08T12:59:18.436Z,5.90
2018-12-08T13:01:46.887Z,5.90
2018-12-08T13:04:15.344Z,5.90
2018-12-08T13:06:43.871Z,5.90
2018-12-08T13:09:12.330Z,5.90
2018-12-08T13:11:40.782Z,5.90
2018-12-08T13:14:09.983Z,5.90
2018-12-08T13:16:38.356Z,5.90
2018-12-08T13:19:06.675Z,6.00
2018-12-08T13:21:35.304Z,6.00
2018-12-08T13:24:03.664Z,6.00
2018-12-08T13:26:32.018Z,6.00
2018-12-08T13:29:00.355Z,6.00
2018-12-08T13:31:28.710Z,6.00
2018-12-08T13:33:57.026Z,6.00
2018-12-08T13:36:25.350Z,6.00
2018-12-08T13:38:53.692Z,6.00
2018-12-08T13:41:22.036Z,5.90
2018-12-08T13:43:53.858Z,5.80
2018-12-08T13:46:22.338Z,5.80
2018-12-08T13:48:50.714Z,5.80
2018-12-08T13:51:19.117Z,5.70
2018-12-08T13:53:47.892Z,5.70
2018-12-08T13:56:16.225Z,5.70
2018-12-08T13:58:44.795Z,5.70
2018-12-08T14:01:13.129Z,5.70
2018-12-08T14:03:41.434Z,5.70
2018-12-08T14:06:09.792Z,5.70
2018-12-08T14:08:38.142Z,5.70
2018-12-08T14:11:06.440Z,5.80
2018-12-08T14:13:34.825Z,5.80
2018-12-08T14:16:03.391Z,5.90
2018-12-08T14:18:31.740Z,5.90
2018-12-08T14:21:00.178Z,5.90
2018-12-08T14:23:28.534Z,5.90
2018-12-08T14:25:56.897Z,5.90
2018-12-08T14:28:25.531Z,5.90
2018-12-08T14:30:53.882Z,5.90
2018-12-08T14:33:22.252Z,6.00
2018-12-08T14:35:51.407Z,6.00
2018-12-08T14:38:19.780Z,6.00
2018-12-08T14:40:48.158Z,5.90
2018-12-08T14:43:16.525Z,6.00
2018-12-08T14:45:44.871Z,5.90
2018-12-08T14:48:13.201Z,5.90
2018-12-08T14:50:41.647Z,5.90
2018-12-08T14:53:09.996Z,5.90
2018-12-08T14:55:38.503Z,5.90
2018-12-08T14:58:06.933Z,5.90
2018-12-08T15:00:35.682Z,5.90
2018-12-08T15:03:03.989Z,5.90
2018-12-08T15:05:32.324Z,6.00
2018-12-08T15:08:00.678Z,5.90
2018-12-08T15:10:28.994Z,5.90
2018-12-08T15:12:57.311Z,5.90
2018-12-08T15:15:25.674Z,5.90
2018-12-08T15:17:53.986Z,5.90
2018-12-08T15:20:22.289Z,6.00
2018-12-08T15:22:50.723Z,5.90
2018-12-08T15:25:19.197Z,5.90
2018-12-08T15:27:47.515Z,5.80
2018-12-08T15:30:15.935Z,5.80
2018-12-08T15:32:44.307Z,5.90
2018-12-08T15:35:12.700Z,5.80
2018-12-08T15:37:41.034Z,5.80
2018-12-08T15:40:10.188Z,5.70
2018-12-08T15:42:38.734Z,5.70
2018-12-08T15:45:09.333Z,5.70
2018-12-08T15:47:37.682Z,5.70
2018-12-08T15:50:06.627Z,5.70
2018-12-08T15:52:34.943Z,5.70
2018-12-08T15:55:03.363Z,5.60
2018-12-08T15:57:31.873Z,5.60
2018-12-08T16:00:00.232Z,5.50
2018-12-08T16:02:28.559Z,5.50
2018-12-08T16:04:56.912Z,5.50
2018-12-08T16:07:25.191Z,5.60
2018-12-08T16:09:53.526Z,5.50
2018-12-08T16:12:21.912Z,5.50
2018-12-08T16:14:50.238Z,5.40
2018-12-08T16:17:18.727Z,5.40
2018-12-08T16:19:47.130Z,5.50
2018-12-08T16:22:15.468Z,5.50
2018-12-08T16:24:43.845Z,5.50
2018-12-08T16:27:12.243Z,5.50
2018-12-08T16:29:40.568Z,5.50
2018-12-08T16:32:08.889Z,5.50
2018-12-08T16:34:37.203Z,5.50
2018-12-08T16:37:05.538Z,5.50
2018-12-08T16:39:33.944Z,5.50
2018-12-08T16:42:02.330Z,5.50
2018-12-08T16:44:30.653Z,5.40
2018-12-08T16:46:59.141Z,5.50
2018-12-08T16:49:27.767Z,5.50
2018-12-08T16:51:56.094Z,5.50
2018-12-08T16:54:24.440Z,5.50
2018-12-08T16:56:52.899Z,5.60
2018-12-08T16:59:21.434Z,5.60
2018-12-08T17:01:53.610Z,5.70
2018-12-08T17:04:22.270Z,5.80
2018-12-08T17:06:50.643Z,5.80
2018-12-08T17:09:19.000Z,5.80
2018-12-08T17:11:47.437Z,5.80
2018-12-08T17:14:15.793Z,5.90
2018-12-08T17:16:44.231Z,5.90
2018-12-08T17:19:12.561Z,5.90
2018-12-08T17:21:40.873Z,5.90
2018-12-08T17:24:09.188Z,6.00
2018-12-08T17:26:37.544Z,5.90
2018-12-08T17:29:06.177Z,5.90
2018-12-08T17:31:34.242Z,6.00
2018-12-08T17:34:02.593Z,5.90
2018-12-08T17:36:30.989Z,5.90
2018-12-08T17:38:59.308Z,5.90
2018-12-08T17:41:27.651Z,6.00
2018-12-08T17:43:56.064Z,6.00
2018-12-08T17:46:24.359Z,6.00
2018-12-08T17:48:52.819Z,6.00
2018-12-08T17:51:21.165Z,6.00
2018-12-08T17:53:49.512Z,6.00
2018-12-08T17:56:17.831Z,6.00
2018-12-08T17:58:46.332Z,6.00
2018-12-08T18:01:14.876Z,6.00
2018-12-08T18:03:43.262Z,6.00
2018-12-08T18:06:11.634Z,5.90
2018-12-08T18:08:39.947Z,6.00
2018-12-08T18:11:08.319Z,6.00
2018-12-08T18:13:36.643Z,6.00
2018-12-08T18:16:04.932Z,5.90
2018-12-08T18:18:33.262Z,5.90
2018-12-08T18:21:01.644Z,5.90
2018-12-08T18:23:30.084Z,5.90
2018-12-08T18:25:58.431Z,5.90
2018-12-08T18:28:26.731Z,5.90
2018-12-08T18:30:55.200Z,5.90
2018-12-08T18:33:23.534Z,5.80
2018-12-08T18:35:51.919Z,5.80
2018-12-08T18:38:20.243Z,5.80
2018-12-08T18:40:48.606Z,5.80
2018-12-08T18:43:16.978Z,5.80
2018-12-08T18:45:45.296Z,5.80
2018-12-08T18:48:13.598Z,5.80
2018-12-08T18:50:41.949Z,5.80
2018-12-08T18:53:10.327Z,5.80
2018-12-08T18:55:38.631Z,5.70
2018-12-08T18:58:07.041Z,5.70
2018-12-08T19:00:35.971Z,5.80
2018-12-08T19:03:04.815Z,5.80
2018-12-08T19:05:33.174Z,5.70
2018-12-08T19:08:01.469Z,5.70
2018-12-08T19:10:29.812Z,5.70
2018-12-08T19:12:58.222Z,5.70
2018-12-08T19:15:26.617Z,5.70
2018-12-08T19:17:54.946Z,5.70
2018-12-08T19:20:23.305Z,5.70
2018-12-08T19:22:51.616Z,5.70
2018-12-08T19:25:19.930Z,5.70
2018-12-08T19:27:48.494Z,5.70
2018-12-08T19:30:16.804Z,5.70
2018-12-08T19:32:45.169Z,5.70
2018-12-08T19:35:13.667Z,5.70
2018-12-08T19:37:41.950Z,5.70
2018-12-08T19:40:10.322Z,5.60
2018-12-08T19:42:39.557Z,5.60
2018-12-08T19:45:07.121Z,5.60
2018-12-08T19:47:35.504Z,5.60
2018-12-08T19:50:03.934Z,5.60
2018-12-08T19:52:32.289Z,5.60
2018-12-08T19:55:00.647Z,5.60
2018-12-08T19:57:28.960Z,5.50
2018-12-08T19:59:57.269Z,5.60
2018-12-08T20:02:25.565Z,5.60
2018-12-08T20:04:54.429Z,5.50
2018-12-08T20:07:22.819Z,5.60
2018-12-08T20:09:51.174Z,5.60
2018-12-08T20:12:19.517Z,5.60
2018-12-08T20:14:47.951Z,5.60
2018-12-08T20:17:16.483Z,5.60
2018-12-08T20:19:44.794Z,5.50
2018-12-08T20:22:13.101Z,5.60
2018-12-08T20:24:41.370Z,5.50
2018-12-08T20:27:09.928Z,5.40
2018-12-08T20:29:38.265Z,5.40
2018-12-08T20:32:06.625Z,5.30
2018-12-08T20:34:34.998Z,5.20
2018-12-08T20:37:03.418Z,5.10
2018-12-08T20:39:31.723Z,5.00
2018-12-08T20:42:00.097Z,5.00
2018-12-08T20:44:28.406Z,4.90
2018-12-08T20:46:56.723Z,4.90
2018-12-08T20:49:25.065Z,4.90
2018-12-08T20:51:53.406Z,4.90
2018-12-08T20:54:21.726Z,4.80
2018-12-08T20:56:50.105Z,4.80
2018-12-08T20:59:18.411Z,4.80
2018-12-08T21:01:46.775Z,4.80
2018-12-08T21:04:15.270Z,4.80
2018-12-08T21:06:43.660Z,4.80
2018-12-08T21:09:12.474Z,4.80
2018-12-08T21:11:40.814Z,4.80
2018-12-08T21:14:09.268Z,4.80
2018-12-08T21:16:37.625Z,4.90
2018-12-08T21:19:05.937Z,4.90
2018-12-08T21:21:34.328Z,4.80
2018-12-08T21:24:02.691Z,4.90
2018-12-08T21:26:31.020Z,4.90
2018-12-08T21:28:59.305Z,4.90
2018-12-08T21:31:27.647Z,4.90
2018-12-08T21:33:55.951Z,4.90
2018-12-08T21:36:24.233Z,5.00
2018-12-08T21:38:52.651Z,5.00
2018-12-08T21:41:20.949Z,5.00
2018-12-08T21:43:49.269Z,5.00
2018-12-08T21:46:17.668Z,5.00
2018-12-08T21:48:45.971Z,5.10
2018-12-08T21:51:14.415Z,5.10
2018-12-08T21:53:42.758Z,5.20
2018-12-08T21:56:11.075Z,5.20
2018-12-08T21:58:39.381Z,5.30
2018-12-08T22:01:07.736Z,5.40
2018-12-08T22:03:36.078Z,5.40
2018-12-08T22:06:04.651Z,5.50
2018-12-08T22:08:33.235Z,5.50
2018-12-08T22:11:01.597Z,5.60
2018-12-08T22:13:29.912Z,5.60
2018-12-08T22:15:58.224Z,5.70
2018-12-08T22:18:26.588Z,5.70
2018-12-08T22:20:54.989Z,5.70
2018-12-08T22:23:23.291Z,5.80
2018-12-08T22:25:51.755Z,5.80
2018-12-08T22:28:20.113Z,5.70
2018-12-08T22:30:48.752Z,5.80
2018-12-08T22:33:17.068Z,5.80
2018-12-08T22:35:45.537Z,5.80
2018-12-08T22:38:13.871Z,5.80
2018-12-08T22:40:42.187Z,5.80
2018-12-08T22:43:10.572Z,5.80
2018-12-08T22:45:38.860Z,5.80
2018-12-08T22:48:07.164Z,5.80
2018-12-08T22:50:35.471Z,5.80
2018-12-08T22:53:03.787Z,5.90
2018-12-08T22:55:32.151Z,5.90
2018-12-08T22:58:00.632Z,5.90
2018-12-08T23:00:41.306Z,5.90
2018-12-08T23:03:09.625Z,5.90
2018-12-08T23:05:37.950Z,5.90
2018-12-08T23:08:06.439Z,5.90
2018-12-08T23:10:34.948Z,5.90
2018-12-08T23:13:03.281Z,5.90
2018-12-08T23:15:31.861Z,5.90
2018-12-08T23:18:00.525Z,5.90
2018-12-08T23:20:28.835Z,5.90
2018-12-08T23:22:57.165Z,5.90
2018-12-08T23:25:25.681Z,6.00
2018-12-08T23:27:53.984Z,6.00
2018-12-08T23:30:22.354Z,6.00
2018-12-08T23:32:50.658Z,6.00
2018-12-08T23:35:19.194Z,6.00
2018-12-08T23:37:47.554Z,6.10
2018-12-08T23:40:15.889Z,6.10
2018-12-08T23:42:44.229Z,6.10
2018-12-08T23:45:12.638Z,6.20
2018-12-08T23:47:40.963Z,6.20
2018-12-08T23:50:09.764Z,6.20
2018-12-08T23:52:38.155Z,6.20
2018-12-08T23:55:06.891Z,6.20
2018-12-08T23:57:35.219Z,6.20
